UHBB 272030Z 33002MPS 9999 FEW033 07/M02 Q1008 R36/090060 NOSIG RMK QFE739/0985
QNH:(hPa/inHg/mmHg)1008 / 29.77 / 756
QFE:(hPa/inHg/mmHg)984 / 29.07 / 738
Temperature7
Dew Point-2
Visibility> 10000
Weather
Cloud CoverFEW (3300);
Transition Height900 m./3600 ft.
Transition LevelFL60
SQUAWK